createdAt,value
2017-08-02T00:01:51.455Z,78.50
2017-08-02T00:04:18.981Z,78.50
2017-08-02T00:06:46.602Z,78.10
2017-08-02T00:09:14.093Z,78.70
2017-08-02T00:11:41.608Z,78.20
2017-08-02T00:14:09.349Z,78.60
2017-08-02T00:16:36.936Z,78.90
2017-08-02T00:19:05.446Z,79.50
2017-08-02T00:21:32.989Z,79.10
2017-08-02T00:24:00.480Z,79.00
2017-08-02T00:26:27.999Z,78.70
2017-08-02T00:28:55.541Z,78.30
2017-08-02T00:31:23.087Z,78.60
2017-08-02T00:33:50.583Z,78.40
2017-08-02T00:36:18.864Z,78.60
2017-08-02T00:38:46.359Z,78.50
2017-08-02T00:41:13.844Z,78.70
2017-08-02T00:43:41.402Z,78.50
2017-08-02T00:46:08.924Z,78.70
2017-08-02T00:48:36.497Z,79.10
2017-08-02T00:51:04.036Z,79.00
2017-08-02T00:53:31.614Z,79.00
2017-08-02T00:55:59.142Z,79.30
2017-08-02T00:58:26.644Z,79.60
2017-08-02T01:00:54.981Z,79.30
2017-08-02T01:03:22.512Z,79.30
2017-08-02T01:05:50.046Z,79.20
2017-08-02T01:08:17.567Z,79.00
2017-08-02T01:10:45.149Z,79.10
2017-08-02T01:13:13.458Z,79.40
2017-08-02T01:15:40.998Z,79.40
2017-08-02T01:18:08.492Z,79.40
2017-08-02T01:20:36.009Z,79.30
2017-08-02T01:23:03.639Z,79.20
2017-08-02T01:25:31.151Z,79.20
2017-08-02T01:27:58.650Z,79.70
2017-08-02T01:30:26.253Z,79.30
2017-08-02T01:32:53.806Z,79.40
2017-08-02T01:35:21.365Z,79.30
2017-08-02T01:37:49.016Z,79.50
2017-08-02T01:40:16.583Z,79.40
2017-08-02T01:42:44.129Z,78.90
2017-08-02T01:45:12.541Z,79.40
2017-08-02T01:47:40.038Z,79.30
2017-08-02T01:50:07.532Z,79.90
2017-08-02T01:52:35.042Z,80.00
2017-08-02T01:55:03.334Z,79.90
2017-08-02T01:57:30.883Z,79.90
2017-08-02T01:59:58.393Z,79.90
2017-08-02T02:02:26.686Z,79.40
2017-08-02T02:04:54.254Z,79.40
2017-08-02T02:07:21.802Z,79.20
2017-08-02T02:09:49.345Z,79.30
2017-08-02T02:12:16.885Z,79.30
2017-08-02T02:14:44.430Z,79.20
2017-08-02T02:17:11.946Z,79.80
2017-08-02T02:19:40.210Z,79.80
2017-08-02T02:22:08.554Z,79.80
2017-08-02T02:24:36.840Z,79.50
2017-08-02T02:27:04.660Z,79.50
2017-08-02T02:29:32.248Z,80.10
2017-08-02T02:31:59.753Z,80.00
2017-08-02T02:34:27.270Z,79.40
2017-08-02T02:36:54.789Z,80.00
2017-08-02T02:39:22.319Z,80.70
2017-08-02T02:41:49.874Z,80.90
2017-08-02T02:44:17.435Z,80.80
2017-08-02T02:46:44.926Z,80.80
2017-08-02T02:49:13.234Z,80.70
2017-08-02T02:51:40.785Z,80.70
2017-08-02T02:54:08.364Z,80.90
2017-08-02T02:56:36.647Z,82.00
2017-08-02T02:59:04.170Z,81.10
2017-08-02T03:01:31.862Z,81.30
2017-08-02T03:03:59.369Z,81.30
2017-08-02T03:06:26.869Z,81.40
2017-08-02T03:08:54.452Z,81.50
2017-08-02T03:11:21.953Z,81.60
2017-08-02T03:13:49.445Z,81.80
2017-08-02T03:16:16.984Z,81.80
2017-08-02T03:18:44.469Z,82.10
2017-08-02T03:21:12.068Z,82.10
2017-08-02T03:23:39.590Z,82.50
2017-08-02T03:26:07.135Z,82.50
2017-08-02T03:28:34.651Z,82.50
2017-08-02T03:31:02.253Z,82.50
2017-08-02T03:33:29.749Z,82.30
2017-08-02T03:35:57.342Z,82.30
2017-08-02T03:38:24.844Z,82.30
2017-08-02T03:40:52.424Z,82.20
2017-08-02T03:43:19.938Z,82.00
2017-08-02T03:45:48.188Z,82.30
2017-08-02T03:48:15.713Z,82.30
2017-08-02T03:50:43.208Z,82.30
2017-08-02T03:53:10.873Z,82.40
2017-08-02T03:55:38.605Z,82.70
2017-08-02T03:58:06.126Z,82.60
2017-08-02T04:00:34.413Z,82.40
2017-08-02T04:03:01.922Z,82.40
2017-08-02T04:05:29.522Z,82.30
2017-08-02T04:07:57.044Z,82.50
2017-08-02T04:10:24.541Z,82.50
2017-08-02T04:12:52.057Z,82.40
2017-08-02T04:15:19.612Z,82.40
2017-08-02T04:17:47.161Z,82.10
2017-08-02T04:20:14.674Z,82.10
2017-08-02T04:22:42.254Z,82.00
2017-08-02T04:25:09.769Z,81.80
2017-08-02T04:27:37.303Z,81.80
2017-08-02T04:30:05.601Z,81.50
2017-08-02T04:32:33.181Z,81.50
2017-08-02T04:35:00.787Z,81.30
2017-08-02T04:37:28.325Z,81.20
2017-08-02T04:39:55.841Z,81.20
2017-08-02T04:42:24.132Z,81.20
2017-08-02T04:44:51.644Z,81.10
2017-08-02T04:47:19.909Z,82.00
2017-08-02T04:49:48.301Z,80.90
2017-08-02T04:52:15.801Z,80.70
2017-08-02T04:54:43.490Z,80.80
2017-08-02T04:57:11.028Z,80.80
2017-08-02T04:59:38.593Z,80.70
2017-08-02T05:02:06.153Z,80.90
2017-08-02T05:04:33.937Z,80.50
2017-08-02T05:07:01.478Z,80.50
2017-08-02T05:09:29.001Z,80.20
2017-08-02T05:11:56.504Z,79.70
2017-08-02T05:14:23.996Z,79.70
2017-08-02T05:16:51.529Z,79.30
2017-08-02T05:19:19.020Z,78.90
2017-08-02T05:21:46.506Z,78.90
2017-08-02T05:24:14.014Z,78.70
2017-08-02T05:26:41.569Z,78.50
2017-08-02T05:29:09.861Z,78.20
2017-08-02T05:31:37.378Z,78.20
2017-08-02T05:34:05.667Z,78.10
2017-08-02T05:36:33.174Z,78.10
2017-08-02T05:39:01.446Z,78.60
2017-08-02T05:41:29.728Z,78.70
2017-08-02T05:43:57.277Z,78.70
2017-08-02T05:46:24.793Z,78.60
2017-08-02T05:48:53.184Z,77.00
2017-08-02T05:51:20.725Z,76.90
2017-08-02T05:53:48.236Z,75.50
2017-08-02T05:56:16.528Z,74.40
2017-08-02T05:58:44.017Z,74.40
2017-08-02T06:01:11.530Z,75.00
2017-08-02T06:03:39.145Z,74.10
2017-08-02T06:06:06.742Z,74.30
2017-08-02T06:08:34.252Z,75.10
2017-08-02T06:11:01.792Z,74.80
2017-08-02T06:13:29.340Z,75.00
2017-08-02T06:15:56.881Z,74.80
2017-08-02T06:18:24.372Z,73.90
2017-08-02T06:20:51.884Z,73.60
2017-08-02T06:23:19.373Z,73.30
2017-08-02T06:25:46.905Z,72.40
2017-08-02T06:28:14.399Z,72.30
2017-08-02T06:30:42.653Z,71.50
2017-08-02T06:33:10.933Z,71.90
2017-08-02T06:35:38.511Z,71.20
2017-08-02T06:38:06.099Z,71.60
2017-08-02T06:40:34.874Z,70.20
2017-08-02T06:43:03.173Z,69.60
2017-08-02T06:45:30.717Z,69.60
2017-08-02T06:47:58.221Z,70.80
2017-08-02T06:50:25.737Z,71.30
2017-08-02T06:52:53.344Z,70.80
2017-08-02T06:55:20.848Z,71.10
2017-08-02T06:57:49.150Z,69.30
2017-08-02T07:00:16.692Z,69.20
2017-08-02T07:02:44.176Z,67.70
2017-08-02T07:05:11.724Z,67.40
2017-08-02T07:07:39.246Z,67.20
2017-08-02T07:10:06.836Z,67.60
2017-08-02T07:12:35.259Z,67.30
2017-08-02T07:15:02.786Z,67.20
2017-08-02T07:17:30.329Z,66.70
2017-08-02T07:19:57.853Z,67.60
2017-08-02T07:22:26.115Z,67.30
2017-08-02T07:24:53.683Z,67.30
2017-08-02T07:27:21.322Z,66.80
2017-08-02T07:29:48.828Z,66.50
2017-08-02T07:32:17.089Z,67.70
2017-08-02T07:34:44.609Z,67.50
2017-08-02T07:37:12.115Z,68.20
2017-08-02T07:39:40.141Z,68.20
2017-08-02T07:42:07.807Z,68.00
2017-08-02T07:44:35.463Z,67.30
2017-08-02T07:47:03.004Z,66.70
2017-08-02T07:49:30.557Z,67.30
2017-08-02T07:51:58.261Z,65.00
2017-08-02T07:54:26.569Z,63.60
2017-08-02T07:56:54.084Z,63.60
2017-08-02T07:59:22.357Z,61.30
2017-08-02T08:01:49.860Z,61.30
2017-08-02T08:04:17.350Z,62.20
2017-08-02T08:06:44.857Z,61.90
2017-08-02T08:09:13.149Z,60.70
2017-08-02T08:11:40.717Z,60.30
2017-08-02T08:14:08.488Z,58.30
2017-08-02T08:16:36.342Z,57.50
2017-08-02T08:19:03.860Z,55.30
2017-08-02T08:21:31.477Z,54.80
2017-08-02T08:23:59.029Z,54.60
2017-08-02T08:26:26.529Z,55.60
2017-08-02T08:28:54.846Z,56.20
2017-08-02T08:31:22.353Z,56.10
2017-08-02T08:33:50.625Z,56.90
2017-08-02T08:36:18.287Z,56.90
2017-08-02T08:38:45.825Z,56.70
2017-08-02T08:41:13.376Z,56.20
2017-08-02T08:43:40.896Z,56.70
2017-08-02T08:46:08.495Z,57.20
2017-08-02T08:48:36.127Z,58.30
2017-08-02T08:51:03.638Z,57.10
2017-08-02T08:53:31.198Z,55.20
2017-08-02T08:55:58.685Z,55.40
2017-08-02T08:58:26.265Z,55.70
2017-08-02T09:00:54.605Z,53.80
2017-08-02T09:03:22.185Z,53.70
2017-08-02T09:05:49.732Z,53.60
2017-08-02T09:08:17.277Z,53.40
2017-08-02T09:10:44.821Z,52.90
2017-08-02T09:13:12.325Z,52.50
2017-08-02T09:15:39.894Z,51.40
2017-08-02T09:18:07.498Z,49.20
2017-08-02T09:20:35.120Z,48.00
2017-08-02T09:23:02.645Z,46.00
2017-08-02T09:25:30.237Z,44.70
2017-08-02T09:27:57.760Z,44.60
2017-08-02T09:30:25.447Z,42.30
2017-08-02T09:32:53.765Z,43.20
2017-08-02T09:35:21.390Z,43.20
2017-08-02T09:37:48.886Z,43.00
2017-08-02T09:40:16.388Z,43.70
2017-08-02T09:42:43.885Z,42.40
2017-08-02T09:45:12.249Z,39.20
2017-08-02T09:47:40.614Z,40.20
2017-08-02T09:50:09.329Z,40.20
2017-08-02T09:52:49.662Z,40.00
2017-08-02T09:55:17.205Z,40.10
2017-08-02T09:57:44.745Z,40.50
2017-08-02T10:00:12.377Z,40.50
2017-08-02T10:02:40.109Z,39.30
2017-08-02T10:05:08.229Z,40.60
2017-08-02T10:07:37.148Z,42.30
2017-08-02T10:10:06.071Z,42.30
2017-08-02T10:12:33.701Z,43.30
2017-08-02T10:15:01.269Z,42.50
2017-08-02T10:17:28.884Z,42.50
2017-08-02T10:19:56.415Z,41.80
2017-08-02T10:22:23.983Z,38.90
2017-08-02T10:24:51.521Z,40.00
2017-08-02T10:27:19.013Z,40.90
2017-08-02T10:29:46.517Z,40.50
2017-08-02T10:32:14.000Z,38.90
2017-08-02T10:34:41.521Z,37.80
2017-08-02T10:37:09.260Z,39.60
2017-08-02T10:39:37.430Z,39.50
2017-08-02T10:42:04.958Z,39.40
2017-08-02T10:44:32.445Z,41.30
2017-08-02T10:47:00.024Z,41.20
2017-08-02T10:49:27.591Z,41.00
2017-08-02T10:51:55.147Z,41.30
2017-08-02T10:54:22.653Z,41.90
2017-08-02T10:56:50.210Z,39.10
2017-08-02T10:59:17.698Z,38.10
2017-08-02T11:01:45.215Z,37.40
2017-08-02T11:04:12.700Z,38.80
2017-08-02T11:06:41.004Z,37.90
2017-08-02T11:09:08.593Z,37.90
2017-08-02T11:11:36.277Z,37.50
2017-08-02T11:14:03.848Z,38.20
2017-08-02T11:16:31.381Z,37.70
2017-08-02T11:18:58.864Z,37.20
2017-08-02T11:21:26.489Z,38.10
2017-08-02T11:23:54.134Z,38.30
2017-08-02T11:26:21.644Z,39.50
2017-08-02T11:28:49.400Z,38.90
2017-08-02T11:31:16.893Z,39.50
2017-08-02T11:33:44.405Z,39.80
2017-08-02T11:36:11.894Z,41.50
2017-08-02T11:38:49.349Z,40.60
2017-08-02T11:41:16.853Z,41.80
2017-08-02T11:43:44.417Z,42.20
2017-08-02T11:46:11.905Z,42.30
2017-08-02T11:48:40.299Z,40.90
2017-08-02T11:51:08.528Z,40.80
2017-08-02T11:53:36.863Z,40.90
2017-08-02T11:56:04.583Z,40.80
2017-08-02T11:58:32.208Z,41.20
2017-08-02T12:00:59.757Z,40.80
2017-08-02T12:03:27.441Z,40.40
2017-08-02T12:05:55.091Z,40.20
2017-08-02T12:08:22.601Z,40.40
2017-08-02T12:10:50.113Z,40.60
2017-08-02T12:13:18.401Z,41.50
2017-08-02T12:15:45.944Z,41.50
2017-08-02T12:18:13.489Z,41.70
2017-08-02T12:20:41.188Z,42.70
2017-08-02T12:23:09.049Z,41.40
2017-08-02T12:25:38.055Z,42.40
2017-08-02T12:28:06.900Z,42.70
2017-08-02T12:30:35.481Z,41.80
2017-08-02T12:33:03.061Z,41.90
2017-08-02T12:35:30.598Z,41.30
2017-08-02T12:37:58.169Z,42.60
2017-08-02T12:40:25.712Z,42.00
2017-08-02T12:42:53.246Z,41.10
2017-08-02T12:45:20.769Z,40.90
2017-08-02T12:47:48.315Z,41.30
2017-08-02T12:50:15.812Z,42.50
2017-08-02T12:52:43.322Z,41.80
2017-08-02T12:55:11.384Z,41.60
2017-08-02T12:57:39.030Z,42.40
2017-08-02T13:00:07.090Z,41.90
2017-08-02T13:02:34.669Z,42.50
2017-08-02T13:05:02.154Z,42.30
2017-08-02T13:07:29.661Z,42.80
2017-08-02T13:09:57.960Z,42.70
2017-08-02T13:12:25.492Z,42.70
2017-08-02T13:14:53.046Z,44.60
2017-08-02T13:17:20.584Z,44.00
2017-08-02T13:19:48.129Z,44.70
2017-08-02T13:22:15.693Z,43.60
2017-08-02T13:24:43.424Z,44.10
2017-08-02T13:27:20.833Z,45.00
2017-08-02T13:29:48.440Z,44.90
2017-08-02T13:32:16.094Z,44.80
2017-08-02T13:34:43.628Z,45.30
2017-08-02T13:37:11.172Z,45.50
2017-08-02T13:39:38.712Z,43.40
2017-08-02T13:42:06.298Z,43.70
2017-08-02T13:44:34.301Z,43.50
2017-08-02T13:47:01.816Z,45.50
2017-08-02T13:49:29.321Z,43.60
2017-08-02T13:51:56.813Z,43.70
2017-08-02T13:54:24.415Z,43.20
2017-08-02T13:56:51.964Z,43.10
2017-08-02T13:59:19.449Z,43.50
2017-08-02T14:01:47.750Z,44.40
2017-08-02T14:04:15.293Z,43.80
2017-08-02T14:06:42.824Z,42.60
2017-08-02T14:09:10.394Z,43.20
2017-08-02T14:11:38.048Z,44.80
2017-08-02T14:14:05.575Z,44.50
2017-08-02T14:16:33.107Z,45.10
2017-08-02T14:19:00.662Z,48.30
2017-08-02T14:21:28.161Z,46.60
2017-08-02T14:23:55.812Z,48.00
2017-08-02T14:26:24.291Z,47.10
2017-08-02T14:28:51.821Z,47.10
2017-08-02T14:31:19.336Z,46.90
2017-08-02T14:33:46.868Z,47.90
2017-08-02T14:36:14.399Z,48.00
2017-08-02T14:38:42.148Z,48.10
2017-08-02T14:41:09.815Z,49.00
2017-08-02T14:43:37.332Z,49.00
2017-08-02T14:46:05.022Z,50.10
2017-08-02T14:48:32.597Z,51.00
2017-08-02T14:51:00.877Z,52.10
2017-08-02T14:53:28.379Z,52.10
2017-08-02T14:55:56.026Z,52.40
2017-08-02T14:58:24.500Z,53.50
2017-08-02T15:00:52.762Z,56.40
2017-08-02T15:03:21.034Z,59.50
2017-08-02T15:05:49.332Z,59.30
2017-08-02T15:08:16.858Z,59.50
2017-08-02T15:10:44.345Z,60.20
2017-08-02T15:13:11.959Z,59.60
2017-08-02T15:15:40.309Z,61.90
2017-08-02T15:18:07.849Z,62.80
2017-08-02T15:20:35.621Z,61.40
2017-08-02T15:23:03.353Z,61.30
2017-08-02T15:25:30.893Z,63.60
2017-08-02T15:27:58.373Z,63.40
2017-08-02T15:30:25.869Z,64.10
2017-08-02T15:32:53.437Z,64.70
2017-08-02T15:35:20.978Z,64.70
2017-08-02T15:37:48.612Z,67.10
2017-08-02T15:40:16.153Z,66.20
2017-08-02T15:42:43.727Z,64.10
2017-08-02T15:45:11.241Z,68.20
2017-08-02T15:47:38.730Z,66.00
2017-08-02T15:50:16.292Z,66.90
2017-08-02T15:52:43.778Z,68.80
2017-08-02T15:55:12.073Z,68.40
2017-08-02T15:57:39.649Z,68.40
2017-08-02T16:00:07.200Z,67.50
2017-08-02T16:02:35.121Z,66.30
2017-08-02T16:05:02.641Z,65.40
2017-08-02T16:07:30.925Z,66.60
2017-08-02T16:09:58.421Z,67.20
2017-08-02T16:12:25.937Z,66.70
2017-08-02T16:14:53.449Z,66.00
2017-08-02T16:17:21.097Z,65.30
2017-08-02T16:19:48.641Z,64.60
2017-08-02T16:22:16.206Z,66.90
2017-08-02T16:24:43.725Z,66.60
2017-08-02T16:27:11.254Z,66.70
2017-08-02T16:29:39.757Z,66.60
2017-08-02T16:32:07.928Z,67.40
2017-08-02T16:34:36.030Z,66.60
2017-08-02T16:37:03.599Z,68.00
2017-08-02T16:39:31.139Z,68.50
2017-08-02T16:41:59.221Z,69.00
2017-08-02T16:44:36.916Z,68.10
2017-08-02T16:47:06.260Z,66.50
2017-08-02T16:49:35.519Z,66.90
2017-08-02T16:52:03.093Z,66.80
2017-08-02T16:54:30.635Z,67.60
2017-08-02T16:56:58.525Z,64.80
2017-08-02T16:59:26.781Z,66.90
2017-08-02T17:01:54.320Z,65.80
2017-08-02T17:04:22.013Z,64.40
2017-08-02T17:06:50.323Z,64.90
2017-08-02T17:09:17.944Z,64.80
2017-08-02T17:11:45.497Z,65.60
2017-08-02T17:14:13.038Z,65.60
2017-08-02T17:16:40.572Z,65.60
2017-08-02T17:19:08.311Z,64.50
2017-08-02T17:21:36.710Z,65.10
2017-08-02T17:24:04.242Z,65.30
2017-08-02T17:26:31.776Z,64.60
2017-08-02T17:28:59.260Z,65.10
2017-08-02T17:31:37.132Z,63.90
2017-08-02T17:34:05.228Z,66.30
2017-08-02T17:36:33.012Z,65.70
2017-08-02T17:39:00.493Z,65.00
2017-08-02T17:41:28.005Z,66.50
2017-08-02T17:43:55.516Z,67.80
2017-08-02T17:46:23.025Z,67.00
2017-08-02T17:48:50.530Z,68.90
2017-08-02T17:51:18.073Z,69.40
2017-08-02T17:53:45.615Z,69.80
2017-08-02T17:56:13.092Z,70.20
2017-08-02T17:58:40.630Z,69.20
2017-08-02T18:01:09.004Z,67.60
2017-08-02T18:03:36.537Z,68.30
2017-08-02T18:06:04.061Z,71.30
2017-08-02T18:08:31.597Z,72.60
2017-08-02T18:10:59.149Z,73.30
2017-08-02T18:13:26.649Z,73.00
2017-08-02T18:15:54.923Z,75.20
2017-08-02T18:18:23.209Z,75.10
2017-08-02T18:20:50.713Z,75.00
2017-08-02T18:23:18.206Z,75.10
2017-08-02T18:25:45.745Z,72.50
2017-08-02T18:28:13.281Z,70.40
2017-08-02T18:30:40.796Z,70.00
2017-08-02T18:33:09.084Z,69.50
2017-08-02T18:35:36.648Z,68.80
2017-08-02T18:38:04.311Z,69.30
2017-08-02T18:40:31.950Z,68.30
2017-08-02T18:42:59.429Z,68.80
2017-08-02T18:45:27.097Z,70.10
2017-08-02T18:47:54.693Z,71.30
2017-08-02T18:50:22.385Z,72.10
2017-08-02T18:52:49.910Z,73.50
2017-08-02T18:55:17.421Z,72.90
2017-08-02T18:57:45.030Z,73.60
2017-08-02T19:00:13.451Z,73.00
2017-08-02T19:02:40.965Z,72.90
2017-08-02T19:05:08.469Z,75.10
2017-08-02T19:07:35.969Z,75.10
2017-08-02T19:10:03.497Z,75.30
2017-08-02T19:12:31.046Z,75.40
2017-08-02T19:14:58.529Z,75.60
2017-08-02T19:17:26.132Z,75.00
2017-08-02T19:19:53.878Z,76.00
2017-08-02T19:22:21.412Z,76.40
2017-08-02T19:24:48.973Z,75.40
2017-08-02T19:27:16.464Z,76.70
2017-08-02T19:29:44.066Z,76.60
2017-08-02T19:32:11.675Z,77.40
2017-08-02T19:34:39.991Z,78.00
2017-08-02T19:37:07.604Z,77.90
2017-08-02T19:39:35.113Z,77.90
2017-08-02T19:42:02.604Z,77.90
2017-08-02T19:44:30.104Z,77.70
2017-08-02T19:46:58.401Z,79.60
2017-08-02T19:49:26.057Z,79.70
2017-08-02T19:51:53.587Z,79.90
2017-08-02T19:54:21.365Z,78.60
2017-08-02T19:56:48.885Z,79.30
2017-08-02T19:59:16.419Z,79.10
2017-08-02T20:01:43.973Z,80.10
2017-08-02T20:04:11.487Z,81.00
2017-08-02T20:06:39.060Z,80.90
2017-08-02T20:09:06.628Z,82.60
2017-08-02T20:11:34.146Z,79.70
2017-08-02T20:14:01.692Z,82.00
2017-08-02T20:16:29.265Z,80.80
2017-08-02T20:18:56.903Z,82.00
2017-08-02T20:21:25.383Z,84.40
2017-08-02T20:23:53.726Z,83.10
2017-08-02T20:26:21.690Z,83.10
2017-08-02T20:28:49.234Z,84.00
2017-08-02T20:31:16.753Z,84.80
2017-08-02T20:33:44.296Z,84.60
2017-08-02T20:36:11.948Z,83.90
2017-08-02T20:38:39.586Z,84.50
2017-08-02T20:41:07.081Z,85.20
2017-08-02T20:43:34.677Z,84.20
2017-08-02T20:46:02.170Z,84.20
2017-08-02T20:48:29.673Z,82.90
2017-08-02T20:50:57.389Z,83.20
2017-08-02T20:53:34.833Z,84.10
2017-08-02T20:56:02.322Z,84.80
2017-08-02T20:58:29.868Z,84.50
2017-08-02T21:00:57.374Z,84.10
2017-08-02T21:03:25.666Z,84.60
2017-08-02T21:05:53.355Z,84.00
2017-08-02T21:08:20.890Z,84.40
2017-08-02T21:10:48.413Z,83.90
2017-08-02T21:13:15.951Z,83.80
2017-08-02T21:15:43.523Z,84.00
2017-08-02T21:18:11.113Z,83.80
2017-08-02T21:20:38.641Z,83.60
2017-08-02T21:23:06.229Z,85.40
2017-08-02T21:25:33.735Z,84.40
2017-08-02T21:28:01.316Z,84.90
2017-08-02T21:30:28.844Z,85.20
2017-08-02T21:32:57.112Z,84.50
2017-08-02T21:35:24.649Z,84.40
2017-08-02T21:37:52.926Z,83.70
2017-08-02T21:40:20.486Z,83.70
2017-08-02T21:42:47.976Z,83.50
2017-08-02T21:45:15.469Z,84.00
2017-08-02T21:47:43.001Z,84.30
2017-08-02T21:50:10.506Z,86.00
2017-08-02T21:52:38.094Z,86.40
2017-08-02T21:55:05.585Z,86.20
2017-08-02T21:57:33.177Z,85.10
2017-08-02T22:00:00.687Z,84.30
2017-08-02T22:02:28.264Z,84.40
2017-08-02T22:04:55.850Z,84.60
2017-08-02T22:07:24.197Z,84.70
2017-08-02T22:09:51.768Z,84.20
2017-08-02T22:12:19.405Z,84.50
2017-08-02T22:14:46.946Z,84.80
2017-08-02T22:17:14.585Z,85.50
2017-08-02T22:19:42.072Z,84.90
2017-08-02T22:22:09.577Z,85.20
2017-08-02T22:24:37.077Z,85.30
2017-08-02T22:27:04.615Z,85.10
2017-08-02T22:29:32.197Z,85.30
2017-08-02T22:31:59.745Z,85.20
2017-08-02T22:34:27.289Z,85.60
2017-08-02T22:36:54.790Z,85.30
2017-08-02T22:39:22.304Z,83.50
2017-08-02T22:41:49.805Z,84.00
2017-08-02T22:44:18.104Z,83.20
2017-08-02T22:46:45.649Z,83.20
2017-08-02T22:49:13.169Z,84.00
2017-08-02T22:51:40.750Z,83.70
2017-08-02T22:54:08.270Z,84.90
2017-08-02T22:56:35.901Z,83.80
2017-08-02T22:59:03.409Z,83.40
2017-08-02T23:01:30.989Z,83.60
2017-08-02T23:03:58.501Z,83.80
2017-08-02T23:06:26.030Z,84.00
2017-08-02T23:08:53.547Z,83.30
2017-08-02T23:11:21.105Z,83.30
2017-08-02T23:13:48.657Z,83.00
2017-08-02T23:16:16.205Z,84.20
2017-08-02T23:18:43.737Z,83.80
2017-08-02T23:21:11.285Z,85.30
2017-08-02T23:23:38.785Z,85.40
2017-08-02T23:26:06.373Z,86.30
2017-08-02T23:28:33.865Z,85.60
2017-08-02T23:31:01.372Z,85.70
2017-08-02T23:33:28.926Z,85.30
2017-08-02T23:35:56.675Z,85.30
2017-08-02T23:38:24.193Z,86.20
2017-08-02T23:40:51.720Z,86.70
2017-08-02T23:43:19.287Z,86.20
2017-08-02T23:45:46.859Z,86.10
2017-08-02T23:48:14.369Z,87.00
2017-08-02T23:50:41.852Z,86.50
2017-08-02T23:53:09.357Z,86.70
2017-08-02T23:55:36.905Z,87.50
2017-08-02T23:58:04.445Z,86.90
